Weather reports worldwide

Advertisment
Pajares/Valgrande, Spain (8031): temperature & dewpoint: 05.12.2019 09:00:00 - 11.12.2019 09:00:00 (CET)Pajares/Valgrande, Spain (8031): wind speed & gusts: 05.12.2019 09:00:00 - 11.12.2019 09:00:00 (CET)Pajares/Valgrande, Spain (8031): wind direction: 05.12.2019 09:00:00 - 11.12.2019 09:00:00 (CET)Pajares/Valgrande, Spain (8031): precipitation: 05.12.2019 09:00:00 - 11.12.2019 09:00:00 (CET)
Date & Time tt [°C] td [°C] ff [km/h] ff [kn] fx [km/h] fx [kn] dd rr [mm]
11.12.2019 09:00:00 - - - - - - - -
11.12.2019 08:00:00 0,0 -1,2 15 8 38 20 NW 0,8
11.12.2019 07:00:00 0,3 -1,0 14 8 31 17 NW -
11.12.2019 06:00:00 0,6 -1,0 7 4 35 19 NNW 2,5
11.12.2019 05:00:00 2,5 0,4 8 4 28 15 NW 0,8
11.12.2019 04:00:00 4,9 0,6 6 3 29 16 SW 0,0
11.12.2019 03:00:00 4,4 -1,2 9 5 25 13 S 0,0
11.12.2019 02:00:00 4,9 -1,4 6 3 30 16 SSE 0,0
11.12.2019 01:00:00 6,3 -1,7 13 7 34 19 SSW -
11.12.2019 00:00:00 7,0 -1,4 26 14 43 23 SSW 0,0
10.12.2019 23:00:00 7,4 -0,5 17 9 40 22 SW 0,0
10.12.2019 22:00:00 7,0 -2,5 3 1 41 22 SW 0,0
10.12.2019 21:00:00 5,9 -5,4 11 6 33 18 S 0,0
10.12.2019 20:00:00 7,3 -6,0 25 14 53 29 S 0,0
10.12.2019 19:00:00 7,0 -5,7 15 8 44 24 SSW -
10.12.2019 18:00:00 6,3 -4,5 16 9 32 17 S 0,0
10.12.2019 17:00:00 6,4 -4,5 13 7 25 14 SSW 0,0
10.12.2019 16:00:00 8,4 -2,2 17 9 32 18 WSW 0,0
10.12.2019 15:00:00 6,6 -4,8 13 7 26 14 SSE 0,0
10.12.2019 14:00:00 6,8 -5,1 16 8 29 16 S 0,0
10.12.2019 13:00:00 6,7 -5,1 16 8 24 13 S -
10.12.2019 12:00:00 6,2 -5,7 14 8 22 12 S 0,0
10.12.2019 11:00:00 7,2 -4,2 7 4 22 12 SSW 0,0
10.12.2019 10:00:00 5,5 -6,7 13 7 19 10 S 0,0
10.12.2019 09:00:00 4,4 -9,9 13 7 16 9 SSW 0,0
10.12.2019 08:00:00 4,4 -9,9 11 6 17 9 SSW 0,0
10.12.2019 07:00:00 4,3 -9,9 13 7 19 10 SSW -
10.12.2019 06:00:00 3,8 -9,9 8 5 19 10 S 0,0
10.12.2019 05:00:00 4,3 -9,4 14 7 22 12 S 0,0
10.12.2019 04:00:00 3,9 -9,0 11 6 14 8 SSW 0,0
10.12.2019 03:00:00 3,3 -9,0 12 6 16 9 SSW 0,0
10.12.2019 02:00:00 2,7 -9,4 1 1 8 5 SSW 0,0
10.12.2019 01:00:00 3,2 -9,9 1 1 10 5 NW -
10.12.2019 00:00:00 3,1 -10,3 3 1 8 4 NNW 0,0
09.12.2019 23:00:00 3,1 -9,9 5 3 9 5 W 0,0
09.12.2019 22:00:00 3,1 -7,8 5 3 12 6 W 0,0
09.12.2019 21:00:00 1,2 -2,5 1 1 7 4 S 0,0
09.12.2019 20:00:00 1,3 -0,3 0 0 14 8 WNW 0,0
09.12.2019 19:00:00 1,5 -0,3 8 4 24 13 NW -
09.12.2019 18:00:00 1,6 -0,3 13 7 26 14 NW 0,0
09.12.2019 17:00:00 1,9 -0,3 13 7 29 16 NW 0,0
09.12.2019 16:00:00 2,3 -0,3 13 7 35 19 NW 0,0
09.12.2019 15:00:00 2,5 -0,5 18 10 40 22 NW 0,0
09.12.2019 14:00:00 2,6 -1,0 18 10 35 19 NW 0,0
09.12.2019 13:00:00 2,8 -0,7 13 7 30 16 NNW -
09.12.2019 12:00:00 2,2 -1,2 13 7 33 18 NW 0,0
09.12.2019 11:00:00 1,7 -2,0 14 7 28 15 NW 0,0
09.12.2019 10:00:00 1,0 -3,9 13 7 26 14 NNW 0,0
09.12.2019 09:00:00 0,3 -9,0 4 2 21 11 NW 0,0
09.12.2019 08:00:00 2,2 -11,2 8 4 24 13 WNW 0,0
09.12.2019 07:00:00 3,5 -12,2 10 5 26 14 NNW -
09.12.2019 06:00:00 4,4 -12,8 12 6 31 17 NNW 0,0
09.12.2019 05:00:00 4,3 -13,3 10 5 28 15 NNW 0,0
09.12.2019 04:00:00 4,3 -13,3 17 9 35 19 NW 0,0
09.12.2019 03:00:00 4,2 -13,9 9 5 26 14 NNW 0,0
09.12.2019 02:00:00 4,1 -12,8 11 6 26 14 NW 0,0
09.12.2019 01:00:00 2,9 -10,8 4 2 14 7 NW -
09.12.2019 00:00:00 2,5 -9,9 1 1 15 8 NNW 0,0
08.12.2019 23:00:00 3,4 -7,8 4 2 18 10 NW 0,0
08.12.2019 22:00:00 4,5 -4,2 9 5 21 11 N 0,0
08.12.2019 21:00:00 0,9 -0,5 5 3 8 5 SSW 0,0
08.12.2019 20:00:00 3,5 2,1 4 2 17 9 NNW 0,0
08.12.2019 19:00:00 4,0 2,7 7 4 15 8 NW -
08.12.2019 18:00:00 4,8 3,4 9 5 18 10 NNW 0,0
08.12.2019 17:00:00 5,6 4,3 8 4 31 17 NNW 0,0
08.12.2019 16:00:00 6,4 5,0 10 6 29 16 NNW 0,0
08.12.2019 15:00:00 6,8 5,5 13 7 29 15 NW 0,0
08.12.2019 14:00:00 7,1 5,6 7 4 18 10 NNW 0,5
08.12.2019 13:00:00 6,6 4,6 3 2 11 6 NNW -
08.12.2019 12:00:00 6,7 3,9 1 1 11 6 SSW 0,2
08.12.2019 11:00:00 6,3 3,6 5 3 12 6 SSE 0,7
08.12.2019 10:00:00 5,8 2,5 3 2 13 7 SSW 0,8
08.12.2019 09:00:00 6,0 1,7 7 4 10 5 SSW 0,0
08.12.2019 08:00:00 6,3 2,1 1 1 11 6 SE 0,0
08.12.2019 07:00:00 6,4 2,5 3 1 13 7 NE -
08.12.2019 06:00:00 5,3 1,1 0 0 10 5 S 0,0
08.12.2019 05:00:00 5,6 0,6 2 1 13 7 S 0,0
08.12.2019 04:00:00 5,3 0,9 6 4 22 12 SSE 0,0
08.12.2019 03:00:00 5,8 0,9 9 5 19 10 SSE 0,0
08.12.2019 02:00:00 4,4 -1,0 3 2 19 10 S 0,0
08.12.2019 01:00:00 4,5 -1,2 9 5 16 9 S -
08.12.2019 00:00:00 3,3 -1,2 5 3 20 11 SSW 0,0
07.12.2019 23:00:00 4,6 0,2 4 2 13 7 SSE 0,0
07.12.2019 22:00:00 5,1 0,0 4 2 13 7 S 0,0
07.12.2019 21:00:00 5,8 0,9 7 4 15 8 SSW 0,0
07.12.2019 20:00:00 5,6 1,1 9 5 14 7 SSW 0,0
07.12.2019 19:00:00 5,5 0,6 4 2 13 7 SSW -
07.12.2019 18:00:00 5,1 0,0 3 2 14 8 S 0,0
07.12.2019 17:00:00 5,4 0,2 11 6 16 8 SSW 0,0
07.12.2019 16:00:00 6,2 0,0 10 5 14 7 S 0,0
07.12.2019 15:00:00 7,1 -0,5 9 5 13 7 SSW 0,0
07.12.2019 14:00:00 7,0 -0,5 6 3 10 5 SSW 0,0
07.12.2019 13:00:00 7,3 0,0 7 4 11 6 S -
07.12.2019 12:00:00 6,0 -2,0 5 3 8 4 SSW 0,0
07.12.2019 11:00:00 6,5 -0,5 3 1 10 5 W 0,0
07.12.2019 10:00:00 4,8 -1,2 3 2 10 6 SW 0,0
07.12.2019 09:00:00 4,9 -1,4 5 3 15 8 SSW 0,0
07.12.2019 08:00:00 4,8 -2,0 10 5 13 7 SSW 0,0
07.12.2019 07:00:00 4,4 -2,7 9 5 12 6 SSW -
07.12.2019 06:00:00 3,7 -3,9 7 4 11 6 S 0,0
07.12.2019 05:00:00 5,2 -3,3 6 4 19 10 S 0,0
07.12.2019 04:00:00 4,8 -3,9 10 6 15 8 SSW 0,0
07.12.2019 03:00:00 5,7 -3,0 13 7 18 10 S 0,0
07.12.2019 02:00:00 4,4 -3,3 10 6 15 8 SSW 0,0
07.12.2019 01:00:00 3,7 -4,8 9 5 12 6 SSW -
07.12.2019 00:00:00 3,8 -4,2 3 2 8 4 WSW 0,0
06.12.2019 23:00:00 3,8 -4,5 2 1 13 7 SW 0,0
06.12.2019 22:00:00 4,1 -5,1 8 4 13 7 SSW 0,0
06.12.2019 21:00:00 3,9 -5,1 4 2 10 6 S 0,0
06.12.2019 20:00:00 4,5 -4,5 10 5 12 7 SSW 0,0
06.12.2019 19:00:00 3,9 -3,9 5 3 8 5 SSW -
06.12.2019 18:00:00 5,5 -3,0 3 2 8 4 W 0,0
06.12.2019 17:00:00 5,6 -2,7 0 0 8 5 N 0,0
06.12.2019 16:00:00 5,1 -3,6 3 2 7 4 SSW 0,0
06.12.2019 15:00:00 6,1 -3,3 0 0 9 5 SSW 0,0
06.12.2019 14:00:00 6,3 -3,9 8 4 10 5 SSW 0,0
06.12.2019 13:00:00 6,3 -3,3 1 0 11 6 SE -
06.12.2019 12:00:00 7,1 -2,2 3 1 6 4 NNE 0,0
06.12.2019 11:00:00 4,8 -3,0 5 3 10 6 SSW 0,0
06.12.2019 10:00:00 4,4 -3,3 6 3 11 6 SSW 0,0
06.12.2019 09:00:00 4,0 -3,9 0 0 11 6 SSW 0,0
06.12.2019 08:00:00 4,2 -4,2 9 5 16 9 SSW 0,0
06.12.2019 07:00:00 3,5 -4,2 9 5 16 9 S -
06.12.2019 06:00:00 3,2 -4,8 11 6 17 9 SSW 0,0
06.12.2019 05:00:00 3,7 -4,2 10 5 26 14 SSW 0,0
06.12.2019 04:00:00 3,6 -5,1 14 8 23 12 S 0,0
06.12.2019 03:00:00 3,3 -5,1 16 9 27 15 S 0,0
06.12.2019 02:00:00 3,5 -3,9 19 11 34 19 S 0,0
06.12.2019 01:00:00 3,9 -2,7 25 13 40 21 S -
06.12.2019 00:00:00 4,2 -1,7 29 15 45 25 S 0,0
05.12.2019 23:00:00 4,6 -1,7 25 14 44 24 S 0,0
05.12.2019 22:00:00 5,0 -1,4 21 12 36 19 S 0,0
05.12.2019 21:00:00 5,0 -0,7 28 15 36 19 S 0,7
05.12.2019 20:00:00 4,2 0,4 12 7 16 9 S 0,6
05.12.2019 19:00:00 3,3 1,9 6 3 11 6 SSE -
05.12.2019 18:00:00 1,1 -0,3 2 1 11 6 SW 0,1
05.12.2019 17:00:00 1,9 0,6 2 1 7 4 SW 0,6
05.12.2019 16:00:00 2,4 1,1 1 1 7 4 NW 1,0
05.12.2019 15:00:00 2,4 1,1 2 1 10 6 NNW 1,0
05.12.2019 14:00:00 2,2 0,9 6 3 10 5 NNW 1,3
05.12.2019 13:00:00 2,4 1,1 4 2 10 5 WNW -
05.12.2019 12:00:00 2,1 0,9 3 1 10 6 NW 1,2
05.12.2019 11:00:00 1,9 0,6 3 1 9 5 WNW 0,8
05.12.2019 10:00:00 1,3 0,0 2 1 12 6 WNW 0,6
05.12.2019 09:00:00 1,0 -0,3 5 3 12 7 NNW 0,6

tt = temperature
td = dewpoint
ff = wind speed
fx = gusts
dd = wind direction
rr = precipitation

Next stations